createdAt,value
2022-08-31T00:00:28.514Z,63.88
2022-08-31T00:03:17.516Z,63.89
2022-08-31T00:05:49.113Z,63.97
2022-08-31T00:08:20.403Z,63.99
2022-08-31T00:10:51.478Z,64.08
2022-08-31T00:13:26.190Z,64.18
2022-08-31T00:15:58.654Z,64.11
2022-08-31T00:18:29.639Z,64.14
2022-08-31T00:21:00.927Z,64.23
2022-08-31T00:23:32.280Z,64.15
2022-08-31T00:26:03.256Z,64.27
2022-08-31T00:28:34.463Z,64.28
2022-08-31T00:31:05.632Z,64.27
2022-08-31T00:33:40.753Z,64.43
2022-08-31T00:36:15.018Z,64.35
2022-08-31T00:38:48.298Z,64.46
2022-08-31T00:41:21.162Z,64.53
2022-08-31T00:43:55.490Z,64.63
2022-08-31T00:46:28.909Z,64.59
2022-08-31T00:49:04.495Z,64.68
2022-08-31T00:51:41.975Z,64.81
2022-08-31T00:54:15.533Z,64.75
2022-08-31T00:56:46.947Z,64.93
2022-08-31T00:59:20.188Z,64.96
2022-08-31T01:01:51.764Z,64.96
2022-08-31T01:04:23.233Z,65.05
2022-08-31T01:06:54.777Z,65.25
2022-08-31T01:09:29.911Z,65.15
2022-08-31T01:11:59.309Z,65.28
2022-08-31T01:14:30.877Z,65.26
2022-08-31T01:17:02.505Z,65.29
2022-08-31T01:19:39.835Z,65.34
2022-08-31T01:22:17.114Z,65.39
2022-08-31T01:24:49.889Z,65.50
2022-08-31T01:27:24.800Z,65.53
2022-08-31T01:29:59.655Z,65.58
2022-08-31T01:32:32.852Z,65.54
2022-08-31T01:35:03.797Z,65.61
2022-08-31T01:37:36.447Z,65.67
2022-08-31T01:40:09.750Z,65.75
2022-08-31T01:42:40.818Z,65.73
2022-08-31T01:45:14.895Z,65.85
2022-08-31T01:47:46.004Z,65.93
2022-08-31T01:50:17.208Z,65.91
2022-08-31T01:52:48.249Z,66.09
2022-08-31T01:55:19.383Z,65.99
2022-08-31T01:57:51.164Z,66.05
2022-08-31T02:00:40.293Z,66.09
2022-08-31T02:03:11.538Z,66.18
2022-08-31T02:05:43.484Z,66.13
2022-08-31T02:08:14.454Z,66.05
2022-08-31T02:10:46.536Z,66.11
2022-08-31T02:13:17.878Z,66.07
2022-08-31T02:15:49.135Z,66.03
2022-08-31T02:18:20.281Z,66.09
2022-08-31T02:20:54.214Z,66.12
2022-08-31T02:23:25.287Z,66.16
2022-08-31T02:25:56.956Z,66.11
2022-08-31T02:28:28.152Z,65.88
2022-08-31T02:30:59.706Z,66.08
2022-08-31T02:33:33.606Z,66.06
2022-08-31T02:36:06.059Z,66.10
2022-08-31T02:38:40.756Z,66.12
2022-08-31T02:41:13.883Z,66.04
2022-08-31T02:43:46.284Z,66.00
2022-08-31T02:46:18.181Z,65.94
2022-08-31T02:49:01.509Z,66.16
2022-08-31T02:51:33.165Z,66.14
2022-08-31T02:54:09.943Z,66.23
2022-08-31T02:57:04.377Z,66.18
2022-08-31T02:59:36.892Z,66.06
2022-08-31T03:02:08.141Z,66.06
2022-08-31T03:04:41.178Z,66.14
2022-08-31T03:07:12.304Z,66.03
2022-08-31T03:09:43.314Z,65.99
2022-08-31T03:12:16.217Z,65.99
2022-08-31T03:14:47.240Z,65.96
2022-08-31T03:17:18.256Z,66.09
2022-08-31T03:19:49.323Z,65.99
2022-08-31T03:22:20.498Z,66.01
2022-08-31T03:24:52.146Z,65.99
2022-08-31T03:27:27.224Z,65.95
2022-08-31T03:29:59.846Z,66.00
2022-08-31T03:32:34.194Z,65.94
2022-08-31T03:35:06.147Z,66.06
2022-08-31T03:37:37.754Z,66.05
2022-08-31T03:40:11.432Z,66.07
2022-08-31T03:42:44.782Z,66.07
2022-08-31T03:45:16.559Z,66.00
2022-08-31T03:47:47.583Z,66.01
2022-08-31T03:50:19.144Z,66.07
2022-08-31T03:53:06.426Z,66.03
2022-08-31T03:55:42.785Z,66.17
2022-08-31T03:58:14.885Z,66.25
2022-08-31T04:00:49.801Z,66.05
2022-08-31T04:03:36.743Z,66.01
2022-08-31T04:06:26.535Z,65.94
2022-08-31T04:09:29.958Z,65.94
2022-08-31T04:12:20.562Z,65.84
2022-08-31T04:15:12.336Z,65.78
2022-08-31T04:18:02.045Z,65.85
2022-08-31T04:20:55.137Z,65.91
2022-08-31T04:23:30.126Z,65.90
2022-08-31T04:26:01.697Z,65.85
2022-08-31T04:28:33.066Z,65.85
2022-08-31T04:31:09.643Z,65.73
2022-08-31T04:33:42.090Z,65.43
2022-08-31T04:36:16.469Z,65.48
2022-08-31T04:38:49.343Z,65.24
2022-08-31T04:41:22.386Z,65.32
2022-08-31T04:43:56.500Z,65.23
2022-08-31T04:46:28.577Z,65.19
2022-08-31T04:49:00.326Z,64.95
2022-08-31T04:51:35.651Z,64.79
2022-08-31T04:54:09.732Z,64.57
2022-08-31T04:56:43.650Z,64.52
2022-08-31T04:59:18.076Z,64.53
2022-08-31T05:02:09.173Z,64.32
2022-08-31T05:04:43.928Z,64.06
2022-08-31T05:07:18.404Z,64.03
2022-08-31T05:09:49.695Z,64.00
2022-08-31T05:12:20.943Z,63.92
2022-08-31T05:14:52.002Z,64.06
2022-08-31T05:17:30.767Z,64.04
2022-08-31T05:20:02.573Z,64.05
2022-08-31T05:22:34.555Z,64.03
2022-08-31T05:25:08.093Z,63.91
2022-08-31T05:27:41.213Z,63.87
2022-08-31T05:30:17.338Z,63.68
2022-08-31T05:33:09.067Z,63.47
2022-08-31T05:35:44.794Z,63.21
2022-08-31T05:38:16.632Z,63.19
2022-08-31T05:40:54.677Z,62.84
2022-08-31T05:43:26.262Z,62.51
2022-08-31T05:45:58.380Z,62.39
2022-08-31T05:48:34.028Z,62.34
2022-08-31T05:51:08.157Z,62.38
2022-08-31T05:53:43.974Z,61.99
2022-08-31T05:56:20.150Z,61.46
2022-08-31T05:58:53.392Z,61.63
2022-08-31T06:01:30.178Z,62.04
2022-08-31T06:04:09.431Z,61.31
2022-08-31T06:06:41.847Z,60.58
2022-08-31T06:09:33.662Z,59.32
2022-08-31T06:12:07.054Z,58.82
2022-08-31T06:14:38.988Z,58.28
2022-08-31T06:17:10.424Z,57.81
2022-08-31T06:19:43.700Z,57.21
2022-08-31T06:22:14.833Z,56.86
2022-08-31T06:24:46.136Z,56.45
2022-08-31T06:27:30.025Z,56.08
2022-08-31T06:30:04.938Z,55.99
2022-08-31T06:32:41.399Z,55.80
2022-08-31T06:35:14.456Z,55.36
2022-08-31T06:38:14.843Z,55.29
2022-08-31T06:41:18.878Z,55.11
2022-08-31T06:44:11.127Z,55.71
2022-08-31T06:46:57.265Z,55.61
2022-08-31T06:49:31.027Z,54.69
2022-08-31T06:52:03.755Z,53.33
2022-08-31T06:54:36.148Z,51.67
2022-08-31T06:57:43.116Z,49.79
2022-08-31T07:00:54.215Z,47.69
2022-08-31T07:03:34.668Z,45.99
2022-08-31T07:06:11.613Z,44.58
2022-08-31T07:12:36.934Z,41.86
2022-08-31T07:15:10.511Z,41.33
2022-08-31T07:17:41.976Z,41.42
2022-08-31T07:20:15.180Z,41.43
2022-08-31T07:22:47.522Z,41.12
2022-08-31T07:25:40.767Z,41.47
2022-08-31T07:28:13.486Z,41.41
2022-08-31T07:30:47.283Z,41.74
2022-08-31T07:33:23.207Z,41.19
2022-08-31T07:35:59.519Z,40.42
2022-08-31T07:39:18.027Z,39.69
2022-08-31T07:43:20.166Z,38.91
2022-08-31T07:45:49.815Z,38.23
2022-08-31T07:48:25.955Z,37.90
2022-08-31T07:51:17.108Z,37.43
2022-08-31T07:53:54.561Z,36.78
2022-08-31T07:56:35.224Z,36.17
2022-08-31T07:59:16.047Z,36.10
2022-08-31T08:01:56.120Z,35.58
2022-08-31T08:04:29.170Z,35.17
2022-08-31T08:07:40.704Z,35.13
2022-08-31T08:10:40.145Z,34.91
2022-08-31T08:13:38.269Z,34.30
2022-08-31T08:16:31.183Z,34.28
2022-08-31T08:19:26.381Z,33.94
2022-08-31T08:21:58.081Z,33.77
2022-08-31T08:24:32.922Z,33.66
2022-08-31T08:27:07.424Z,33.72
2022-08-31T08:29:54.666Z,33.86
2022-08-31T08:32:31.640Z,33.89
2022-08-31T08:35:05.067Z,33.49
2022-08-31T08:37:57.095Z,33.05
2022-08-31T08:40:34.367Z,33.09
2022-08-31T08:43:06.690Z,32.93
2022-08-31T08:45:39.118Z,33.06
2022-08-31T08:48:15.265Z,33.24
2022-08-31T08:50:47.131Z,33.07
2022-08-31T08:53:35.366Z,32.74
2022-08-31T08:56:33.740Z,32.47
2022-08-31T08:59:11.489Z,32.63
2022-08-31T09:01:49.039Z,32.41
2022-08-31T09:04:41.178Z,32.97
2022-08-31T09:07:45.343Z,32.99
2022-08-31T09:10:27.394Z,32.73
2022-08-31T09:13:12.398Z,32.68
2022-08-31T09:15:57.124Z,32.64
2022-08-31T09:18:45.975Z,32.52
2022-08-31T09:21:30.994Z,32.34
2022-08-31T09:24:05.232Z,32.69
2022-08-31T09:27:17.889Z,32.68
2022-08-31T09:29:54.280Z,32.33
2022-08-31T09:32:31.779Z,32.45
2022-08-31T09:35:05.727Z,32.63
2022-08-31T09:37:46.444Z,32.59
2022-08-31T09:40:24.324Z,32.27
2022-08-31T09:43:07.765Z,32.34
2022-08-31T09:45:49.840Z,32.31
2022-08-31T09:48:43.572Z,32.62
2022-08-31T09:51:24.010Z,33.06
2022-08-31T09:54:13.832Z,32.82
2022-08-31T09:56:58.760Z,32.75
2022-08-31T09:59:38.568Z,32.55
2022-08-31T10:02:13.982Z,32.48
2022-08-31T10:04:55.544Z,32.20
2022-08-31T10:07:39.051Z,32.31
2022-08-31T10:10:28.231Z,32.30
2022-08-31T10:13:06.649Z,31.95
2022-08-31T10:15:44.518Z,32.14
2022-08-31T10:18:21.941Z,32.18
2022-08-31T10:21:04.853Z,32.27
2022-08-31T10:23:54.621Z,32.65
2022-08-31T10:26:36.708Z,32.32
2022-08-31T10:29:22.781Z,32.28
2022-08-31T10:32:01.596Z,32.35
2022-08-31T10:34:54.784Z,32.62
2022-08-31T10:37:37.097Z,32.41
2022-08-31T10:40:14.356Z,32.48
2022-08-31T10:42:50.722Z,32.19
2022-08-31T10:45:25.419Z,31.87
2022-08-31T10:47:57.332Z,31.62
2022-08-31T10:50:45.236Z,31.53
2022-08-31T10:53:35.967Z,31.77
2022-08-31T10:56:19.094Z,32.25
2022-08-31T10:59:13.001Z,32.47
2022-08-31T11:01:54.513Z,32.02
2022-08-31T11:05:03.534Z,31.97
2022-08-31T11:07:45.234Z,32.64
2022-08-31T11:10:25.406Z,32.13
2022-08-31T11:12:59.472Z,32.02
2022-08-31T11:16:00.464Z,32.01
2022-08-31T11:19:19.738Z,31.99
2022-08-31T11:22:18.986Z,31.89
2022-08-31T11:25:15.174Z,32.09
2022-08-31T11:27:51.705Z,32.40
2022-08-31T11:30:28.067Z,32.43
2022-08-31T11:33:05.974Z,32.74
2022-08-31T11:36:10.083Z,32.77
2022-08-31T11:38:52.383Z,32.79
2022-08-31T11:41:46.984Z,32.98
2022-08-31T11:45:00.490Z,33.14
2022-08-31T11:47:47.209Z,33.29
2022-08-31T11:50:56.294Z,33.30
2022-08-31T11:53:35.342Z,33.35
2022-08-31T11:56:09.759Z,33.67
2022-08-31T11:58:42.612Z,33.45
2022-08-31T12:01:43.205Z,33.65
2022-08-31T12:04:53.814Z,33.66
2022-08-31T12:07:29.553Z,33.81
2022-08-31T12:10:34.866Z,33.61
2022-08-31T12:13:36.963Z,33.70
2022-08-31T12:16:21.289Z,33.73
2022-08-31T12:19:34.461Z,33.61
2022-08-31T12:22:37.083Z,33.52
2022-08-31T12:25:20.361Z,33.38
2022-08-31T12:28:02.493Z,33.41
2022-08-31T12:30:33.839Z,33.23
2022-08-31T12:33:11.692Z,33.36
2022-08-31T12:35:46.505Z,33.49
2022-08-31T12:38:22.448Z,33.55
2022-08-31T12:40:56.215Z,33.69
2022-08-31T12:43:33.458Z,33.82
2022-08-31T12:46:26.747Z,33.94
2022-08-31T12:49:16.787Z,34.05
2022-08-31T12:51:51.719Z,34.07
2022-08-31T12:54:56.517Z,34.16
2022-08-31T12:57:59.497Z,34.07
2022-08-31T13:00:33.905Z,33.89
2022-08-31T13:03:18.268Z,34.16
2022-08-31T13:06:09.133Z,34.22
2022-08-31T13:08:46.693Z,34.43
2022-08-31T13:11:39.871Z,34.45
2022-08-31T13:14:18.316Z,34.08
2022-08-31T13:16:52.437Z,33.81
2022-08-31T13:19:26.843Z,33.81
2022-08-31T13:22:01.582Z,33.99
2022-08-31T13:24:35.955Z,33.83
2022-08-31T13:27:12.507Z,33.65
2022-08-31T13:33:31.210Z,33.71
2022-08-31T13:36:09.701Z,33.83
2022-08-31T13:38:54.954Z,33.86
2022-08-31T13:41:28.668Z,34.04
2022-08-31T13:44:03.755Z,34.04
2022-08-31T13:46:43.255Z,34.26
2022-08-31T13:49:32.547Z,34.33
2022-08-31T13:52:04.806Z,34.20
2022-08-31T13:54:37.335Z,34.22
2022-08-31T13:57:22.794Z,34.12
2022-08-31T13:59:54.494Z,34.11
2022-08-31T14:02:36.878Z,34.29
2022-08-31T14:05:13.105Z,34.59
2022-08-31T14:08:02.381Z,34.46
2022-08-31T14:10:37.703Z,34.31
2022-08-31T14:13:18.609Z,34.31
2022-08-31T14:15:56.475Z,34.35
2022-08-31T14:18:32.371Z,34.42
2022-08-31T14:21:23.440Z,34.61
2022-08-31T14:24:02.698Z,34.45
2022-08-31T14:26:37.286Z,34.79
2022-08-31T14:29:11.453Z,35.06
2022-08-31T14:31:48.609Z,35.28
2022-08-31T14:34:36.880Z,35.43
2022-08-31T14:37:19.875Z,35.44
2022-08-31T14:39:53.888Z,35.46
2022-08-31T14:42:28.886Z,35.48
2022-08-31T14:45:05.122Z,35.55
2022-08-31T14:47:44.351Z,35.46
2022-08-31T14:50:18.794Z,35.60
2022-08-31T14:52:55.488Z,35.84
2022-08-31T14:55:31.289Z,35.87
2022-08-31T14:58:09.788Z,36.02
2022-08-31T15:00:53.710Z,36.12
2022-08-31T15:03:26.805Z,36.26
2022-08-31T15:06:00.169Z,36.58
2022-08-31T15:08:38.625Z,36.78
2022-08-31T15:11:11.079Z,36.88
2022-08-31T15:13:57.193Z,37.15
2022-08-31T15:16:30.996Z,37.46
2022-08-31T15:19:04.536Z,37.56
2022-08-31T15:21:35.971Z,37.79
2022-08-31T15:24:16.356Z,38.20
2022-08-31T15:26:47.994Z,38.32
2022-08-31T15:29:20.967Z,38.30
2022-08-31T15:31:55.547Z,38.57
2022-08-31T15:34:30.590Z,38.56
2022-08-31T15:37:03.928Z,38.84
2022-08-31T15:43:47.157Z,38.98
2022-08-31T15:46:18.725Z,38.73
2022-08-31T15:48:52.302Z,39.13
2022-08-31T15:51:27.990Z,39.12
2022-08-31T15:54:21.082Z,39.26
2022-08-31T15:56:54.531Z,39.08
2022-08-31T15:59:26.572Z,39.15
2022-08-31T16:01:59.070Z,39.30
2022-08-31T16:04:31.663Z,39.28
2022-08-31T16:07:05.244Z,39.19
2022-08-31T16:09:36.708Z,39.44
2022-08-31T16:12:11.043Z,39.55
2022-08-31T16:14:45.409Z,39.71
2022-08-31T16:17:19.129Z,39.68
2022-08-31T16:19:53.261Z,39.97
2022-08-31T16:22:30.549Z,39.95
2022-08-31T16:25:02.268Z,39.96
2022-08-31T16:27:35.832Z,40.19
2022-08-31T16:30:09.153Z,40.35
2022-08-31T16:32:40.479Z,40.52
2022-08-31T16:35:12.718Z,40.60
2022-08-31T16:37:44.833Z,40.68
2022-08-31T16:44:36.437Z,41.23
2022-08-31T16:47:08.888Z,41.39
2022-08-31T16:49:41.432Z,41.59
2022-08-31T16:52:14.887Z,41.70
2022-08-31T16:54:52.641Z,41.82
2022-08-31T16:57:27.353Z,42.01
2022-08-31T17:00:00.639Z,42.39
2022-08-31T17:02:54.481Z,42.48
2022-08-31T17:05:25.791Z,42.52
2022-08-31T17:07:57.227Z,42.59
2022-08-31T17:10:34.610Z,42.76
2022-08-31T17:13:07.328Z,42.88
2022-08-31T17:15:41.945Z,42.97
2022-08-31T17:18:16.703Z,43.07
2022-08-31T17:20:48.720Z,43.04
2022-08-31T17:23:24.563Z,43.14
2022-08-31T17:25:55.942Z,43.42
2022-08-31T17:28:27.098Z,43.42
2022-08-31T17:31:01.324Z,43.37
2022-08-31T17:33:35.741Z,43.34
2022-08-31T17:36:10.089Z,43.40
2022-08-31T17:38:41.394Z,43.30
2022-08-31T17:41:13.098Z,43.12
2022-08-31T17:43:46.743Z,42.97
2022-08-31T17:46:53.949Z,42.89
2022-08-31T17:49:26.993Z,42.84
2022-08-31T17:52:04.698Z,42.89
2022-08-31T17:54:39.534Z,42.70
2022-08-31T17:57:13.766Z,42.67
2022-08-31T17:59:48.798Z,42.47
2022-08-31T18:02:19.232Z,42.55
2022-08-31T18:04:52.459Z,42.51
2022-08-31T18:07:25.086Z,42.49
2022-08-31T18:09:56.212Z,42.47
2022-08-31T18:12:27.781Z,42.52
2022-08-31T18:14:59.319Z,42.47
2022-08-31T18:17:31.260Z,42.53
2022-08-31T18:20:03.362Z,42.72
2022-08-31T18:22:34.804Z,42.64
2022-08-31T18:25:07.368Z,42.72
2022-08-31T18:27:38.941Z,42.90
2022-08-31T18:30:15.184Z,42.94
2022-08-31T18:32:50.248Z,42.98
2022-08-31T18:35:22.136Z,43.16
2022-08-31T18:37:54.534Z,43.25
2022-08-31T18:40:52.646Z,43.33
2022-08-31T18:44:31.640Z,43.45
2022-08-31T18:48:01.675Z,43.50
2022-08-31T18:50:37.237Z,43.62
2022-08-31T18:53:15.130Z,43.64
2022-08-31T18:56:33.485Z,43.83
2022-08-31T18:59:29.784Z,44.00
2022-08-31T19:02:01.217Z,44.07
2022-08-31T19:04:32.982Z,44.20
2022-08-31T19:07:05.298Z,44.18
2022-08-31T19:13:35.524Z,44.48
2022-08-31T19:16:15.206Z,44.51
2022-08-31T19:18:49.611Z,44.53
2022-08-31T19:21:45.993Z,44.69
2022-08-31T19:24:22.088Z,44.82
2022-08-31T19:26:55.953Z,44.91
2022-08-31T19:29:30.952Z,44.78
2022-08-31T19:32:21.614Z,45.02
2022-08-31T19:34:53.218Z,45.17
2022-08-31T19:37:24.417Z,45.26
2022-08-31T19:39:55.729Z,45.36
2022-08-31T19:45:23.639Z,45.70
2022-08-31T19:48:01.279Z,45.92
2022-08-31T19:50:41.502Z,46.13
2022-08-31T19:53:20.718Z,46.19
2022-08-31T19:55:57.668Z,46.25
2022-08-31T19:58:29.897Z,46.24
2022-08-31T20:01:06.478Z,46.42
2022-08-31T20:03:37.843Z,46.51
2022-08-31T20:06:12.954Z,46.75
2022-08-31T20:08:45.823Z,46.87
2022-08-31T20:11:21.953Z,46.87
2022-08-31T20:13:58.650Z,47.05
2022-08-31T20:16:43.345Z,47.16
2022-08-31T20:19:39.780Z,47.20
2022-08-31T20:22:13.964Z,47.36
2022-08-31T20:25:32.482Z,47.44
2022-08-31T20:28:07.092Z,47.47
2022-08-31T20:30:41.815Z,47.60
2022-08-31T20:33:13.520Z,47.75
2022-08-31T20:35:47.932Z,47.84
2022-08-31T20:38:20.257Z,47.88
2022-08-31T20:40:53.086Z,47.96
2022-08-31T20:43:24.892Z,48.11
2022-08-31T20:45:56.286Z,48.13
2022-08-31T20:48:46.165Z,48.36
2022-08-31T20:51:41.305Z,48.41
2022-08-31T20:54:13.714Z,48.48
2022-08-31T20:56:55.333Z,48.56
2022-08-31T20:59:31.456Z,48.59
2022-08-31T21:02:12.481Z,48.75
2022-08-31T21:04:45.808Z,48.72
2022-08-31T21:07:19.133Z,48.72
2022-08-31T21:09:51.246Z,48.68
2022-08-31T21:12:23.008Z,48.80
2022-08-31T21:14:55.964Z,48.88
2022-08-31T21:17:31.533Z,48.87
2022-08-31T21:20:03.940Z,48.82
2022-08-31T21:22:35.501Z,48.83
2022-08-31T21:25:12.622Z,49.08
2022-08-31T21:27:43.794Z,49.13
2022-08-31T21:30:15.636Z,49.13
2022-08-31T21:32:48.563Z,49.26
2022-08-31T21:35:20.310Z,49.27
2022-08-31T21:37:51.725Z,49.47
2022-08-31T21:40:32.128Z,49.55
2022-08-31T21:43:05.490Z,49.64
2022-08-31T21:45:38.522Z,49.61
2022-08-31T21:48:11.460Z,49.82
2022-08-31T21:50:47.176Z,49.90
2022-08-31T21:53:25.788Z,49.87
2022-08-31T21:55:59.230Z,49.89
2022-08-31T21:58:31.992Z,49.98
2022-08-31T22:01:03.289Z,50.16
2022-08-31T22:03:35.813Z,50.25
2022-08-31T22:06:12.887Z,50.31
2022-08-31T22:09:00.406Z,50.39
2022-08-31T22:11:46.698Z,50.42
2022-08-31T22:14:42.053Z,50.45
2022-08-31T22:17:14.558Z,50.50
2022-08-31T22:19:45.562Z,50.43
2022-08-31T22:22:17.980Z,50.50
2022-08-31T22:24:49.294Z,50.41
2022-08-31T22:27:20.293Z,50.47
2022-08-31T22:29:51.456Z,50.49
2022-08-31T22:32:22.648Z,50.59
2022-08-31T22:34:55.383Z,50.57
2022-08-31T22:37:27.279Z,50.81
2022-08-31T22:39:58.278Z,50.78
2022-08-31T22:42:29.303Z,50.74
2022-08-31T22:45:00.474Z,50.87
2022-08-31T22:47:49.184Z,50.83
2022-08-31T22:50:21.055Z,50.96
2022-08-31T22:52:53.219Z,51.02
2022-08-31T22:55:24.410Z,51.06
2022-08-31T22:57:55.495Z,51.16
2022-08-31T23:00:28.037Z,51.18
2022-08-31T23:02:59.645Z,51.32
2022-08-31T23:05:31.265Z,51.37
2022-08-31T23:08:02.412Z,51.50
2022-08-31T23:10:35.665Z,51.46
2022-08-31T23:13:07.283Z,51.55
2022-08-31T23:15:40.233Z,51.67
2022-08-31T23:18:15.829Z,51.58
2022-08-31T23:20:46.876Z,51.78
2022-08-31T23:23:17.816Z,51.86
2022-08-31T23:25:50.507Z,51.99
2022-08-31T23:28:21.705Z,51.99
2022-08-31T23:30:52.704Z,52.15
2022-08-31T23:33:25.497Z,52.36
2022-08-31T23:35:56.589Z,52.23
2022-08-31T23:38:28.121Z,52.50
2022-08-31T23:41:00.571Z,52.48
2022-08-31T23:43:31.713Z,52.68
2022-08-31T23:46:04.387Z,52.92
2022-08-31T23:48:35.458Z,53.05
2022-08-31T23:51:10.656Z,52.97
2022-08-31T23:53:42.411Z,53.18
2022-08-31T23:56:32.240Z,53.33
2022-08-31T23:59:03.873Z,53.39
